KOAK/OAK METAR and TAF weather

Enter ICAO airport designator
Station Type Date Time Source
KOAK METAR 2019/06/26 15:53 UTC NOAA

KOAK 261553Z 27013KT 10SM FEW010 18/11 A2998 RMK AO2 SLP152 T01830111


Station Type Date Time Source
KOAK Decoded METAR 2019/06/26 15:53 UTC NOAA

METRO OAKLAND INTERNATIONAL AIRPORT , CA, United States (KOAK) 37-43N 122-14W 26M
Jun 26, 2019 - 11:53 AM EDT / 2019.06.26 1553 UTC
Wind: from the W (270 degrees) at 15 MPH (13 KT):0
Visibility: 10 mile(s):0
Sky conditions: mostly clear
Temperature: 64.9 F (18.3 C)
Dew Point: 52.0 F (11.1 C)
Relative Humidity: 62%
Pressure (altimeter): 29.98 in. Hg (1015 hPa)
ob: KOAK 261553Z 27013KT 10SM FEW010 18/11 A2998 RMK AO2 SLP152 T01830111
cycle: 16

Station Type Date Time Source
KOAK TAF 2019/06/26 12:36 UTC NOAA

TAF KOAK 261133Z 2612/2718 28008KT P6SM FEW015 SCT200
FM261800 28010G16KT P6SM FEW015 SCT200
FM262100 28014G20KT P6SM FEW015 SCT200
FM270300 27011G17KT P6SM SCT013 BKN200
FM270700 27008KT P6SM BKN012 BKN200
FM271000 26006KT P6SM OVC011
FM271730 25006KT P6SM FEW012 SCT015

Example: see airport list